Time;durP1;ratioP1;P1;durP2;ratioP2;P2;SDS_P1;SDS_P2;PMS_P1;PMS_P2;Temp;Humidity;BMP_temperature;BMP_pressure;BME280_temperature;BME280_humidity;BME280_pressure;Samples;Min_cycle;Max_cycle;Signal;HPM_P1;HPM_P2
2023/11/05 00:03:23;;;;;;;14.00;6.60;;;;;;;6.87;100.00;97553.04;223729;1266;138136;-82
2023/11/05 00:09:15;;;;;;;;;;;;;;;;;;;;;
2023/11/05 00:21:09;;;;;;;12.70;5.80;;;;;;;6.92;100.00;97543.17;223063;1266;139594;-81
2023/11/05 00:27:11;;;;;;;16.00;7.60;;;;;;;6.95;100.00;97562.31;223743;1265;138668;-81
2023/11/05 00:33:12;;;;;;;15.30;6.70;;;;;;;6.99;100.00;97560.42;223509;1266;138146;-82
2023/11/05 00:38:54;;;;;;;;;;;;;;;;;;;;;
2023/11/05 00:44:57;;;;;;;13.40;6.40;;;;;;;7.03;100.00;97537.22;223745;1266;138085;-81
2023/11/05 00:50:58;;;;;;;15.00;6.90;;;;;;;7.05;100.00;97512.60;223162;1265;139816;-81
2023/11/05 00:56:59;;;;;;;14.00;6.80;;;;;;;7.05;100.00;97483.54;223618;1266;138191;-82
2023/11/05 01:03:00;;;;;;;14.20;6.30;;;;;;;7.02;100.00;97450.47;223171;1269;139210;-82
2023/11/05 01:09:02;;;;;;;11.60;5.60;;;;;;;7.02;100.00;97460.80;223168;1266;140059;-82
2023/11/05 01:14:54;;;;;;;;;;;;;;;;;;;;;
2023/11/05 01:20:56;;;;;;;13.90;6.20;;;;;;;6.99;100.00;97460.14;223105;1265;139689;-82
2023/11/05 01:26:57;;;;;;;14.90;6.10;;;;;;;6.99;100.00;97484.81;223690;1266;138633;-81
2023/11/05 01:38:59;;;;;;;14.30;7.50;;;;;;;7.04;100.00;97493.63;223068;1265;140132;-80
2023/11/05 01:45:00;;;;;;;14.70;6.00;;;;;;;7.05;100.00;97476.11;223583;1266;138144;-82
2023/11/05 01:51:02;;;;;;;15.80;6.20;;;;;;;7.10;100.00;97465.67;223217;1265;139779;-82
2023/11/05 01:57:02;;;;;;;10.70;5.30;;;;;;;7.16;100.00;97460.46;223638;1266;138749;-82
2023/11/05 02:03:05;;;;;;;13.00;5.70;;;;;;;7.21;100.00;97468.31;223340;1266;139796;-81
2023/11/05 02:09:06;;;;;;;14.00;5.60;;;;;;;7.26;100.00;97457.49;223216;1266;139785;-82
2023/11/05 02:15:07;;;;;;;10.60;5.40;;;;;;;7.29;100.00;97447.43;223712;1266;138260;-82
2023/11/05 02:21:09;;;;;;;11.40;5.30;;;;;;;7.32;100.00;97447.75;223072;1269;140622;-82
2023/11/05 02:27:10;;;;;;;13.60;5.70;;;;;;;7.34;100.00;97442.30;223740;1266;138131;-82
2023/11/05 02:33:03;;;;;;;;;;;;;;;;;;;;;
2023/11/05 02:45:05;;;;;;;11.10;5.10;;;;;;;7.43;100.00;97425.12;223716;1266;138117;-82
2023/11/05 02:51:06;;;;;;;11.10;5.30;;;;;;;7.47;100.00;97422.05;223139;1266;139717;-82
2023/11/05 02:57:08;;;;;;;8.70;4.40;;;;;;;7.49;100.00;97415.36;223773;1266;138331;-81
2023/11/05 03:09:03;;;;;;;9.10;4.50;;;;;;;7.58;100.00;97400.73;223174;1266;139732;-82
2023/11/05 03:15:05;;;;;;;8.00;3.80;;;;;;;7.63;100.00;97383.48;223710;1265;139284;-82
2023/11/05 03:21:06;;;;;;;10.70;4.60;;;;;;;7.66;100.00;97375.13;223163;1269;139728;-82
2023/11/05 03:27:07;;;;;;;8.70;4.30;;;;;;;7.69;100.00;97370.02;223682;1267;138192;-81
2023/11/05 03:33:09;;;;;;;8.80;4.00;;;;;;;7.73;100.00;97367.13;223327;1266;245654;-82
2023/11/05 03:39:10;;;;;;;9.60;4.10;;;;;;;7.77;100.00;97367.80;223083;1265;139548;-82
2023/11/05 03:44:54;;;;;;;10.60;4.20;;;;;;;7.80;100.00;97355.59;223734;1266;138505;-81
2023/11/05 03:50:56;;;;;;;7.90;4.00;;;;;;;7.84;100.00;97356.40;223217;1265;139571;-81
2023/11/05 03:56:59;;;;;;;9.40;4.20;;;;;;;7.88;100.00;97353.88;223754;1265;138120;-82
2023/11/05 04:02:59;;;;;;;9.60;4.20;;;;;;;7.93;100.00;97360.06;223132;1269;138816;-81
2023/11/05 04:09:00;;;;;;;8.10;3.90;;;;;;;7.97;100.00;97364.75;223165;1265;139176;-81
2023/11/05 04:15:04;;;;;;;8.70;3.90;;;;;;;8.00;100.00;97348.06;223710;1269;137908;-82
2023/11/05 04:20:52;;;;;;;9.20;4.20;;;;;;;8.02;100.00;97333.01;223067;1269;139231;-81
2023/11/05 04:26:53;;;;;;;11.00;4.60;;;;;;;8.02;100.00;97343.80;223761;1267;138130;-81
2023/11/05 04:32:53;;;;;;;7.90;3.50;;;;;;;8.04;100.00;97340.38;223162;1266;139019;-82
2023/11/05 04:44:58;;;;;;;7.10;3.40;;;;;;;8.11;100.00;97367.78;223838;1267;138103;-81
2023/11/05 04:50:58;;;;;;;7.70;4.00;;;;;;;8.13;100.00;97364.20;223252;1267;139875;-82
2023/11/05 04:56:48;;;;;;;;;;;;;;;;;;;;;
2023/11/05 05:02:49;;;;;;;10.00;4.60;;;;;;;8.17;100.00;97368.64;223208;1266;139020;-82
2023/11/05 05:08:50;;;;;;;;;;;;;;;;;;;;;
2023/11/05 05:14:52;;;;;;;7.70;3.20;;;;;;;8.16;100.00;97348.48;223707;1267;138266;-81
2023/11/05 05:20:53;;;;;;;8.10;3.50;;;;;;;8.14;100.00;97340.79;223114;1267;139776;-81
2023/11/05 05:26:52;;;;;;;;;;;;;;;;;;;;;
2023/11/05 05:32:52;;;;;;;;;;;;;;;;;;;;;
2023/11/05 05:38:52;;;;;;;;;;;;;;;;;;;;;
2023/11/05 05:44:51;;;;;;;7.00;3.20;;;;;;;8.17;100.00;97352.75;223814;1265;138036;-82
2023/11/05 05:50:26;;;;;;;;;;;;;;;;;;;;;
2023/11/05 05:56:38;;;;;;;8.40;3.50;;;;;;;8.20;100.00;97347.60;223634;1265;138889;-82
2023/11/05 06:02:39;;;;;;;9.50;3.40;;;;;;;8.18;100.00;97327.42;223296;1265;139449;-82
2023/11/05 06:08:39;;;;;;;8.30;3.70;;;;;;;8.18;100.00;97317.43;223257;1267;139088;-83
2023/11/05 06:14:33;;;;;;;;;;;;;;;;;;;;;
2023/11/05 06:20:26;;;;;;;;;;;;;;;;;;;;;
2023/11/05 06:26:24;;;;;;;;;;;;;;;;;;;;;
2023/11/05 06:38:27;;;;;;;8.80;3.40;;;;;;;8.00;100.00;97292.20;223136;1267;140284;-82
2023/11/05 06:44:27;;;;;;;7.40;3.50;;;;;;;7.98;100.00;97289.92;223737;1265;138059;-82
2023/11/05 06:50:08;;;;;;;7.80;3.60;;;;;;;7.97;100.00;97286.73;223170;1265;139404;-81
2023/11/05 06:56:03;;;;;;;9.90;3.90;;;;;;;7.98;100.00;97290.48;223722;1265;138866;-82
2023/11/05 07:02:02;;;;;;;6.50;3.60;;;;;;;8.00;100.00;97298.33;223132;1265;139463;-82
2023/11/05 07:14:03;;;;;;;9.60;3.90;;;;;;;8.11;100.00;97303.13;223721;1269;138866;-82
2023/11/05 07:20:04;;;;;;;7.90;3.40;;;;;;;8.20;100.00;97309.88;223057;1266;139513;-81
2023/11/05 07:26:07;;;;;;;8.40;3.90;;;;;;;8.29;100.00;97312.65;223630;1266;138168;-82
2023/11/05 07:31:57;;;;;;;;;;;;;;;;;;;;;
2023/11/05 07:44:03;;;;;;;7.30;3.30;;;;;;;8.60;100.00;97307.73;223649;1265;138908;-82
2023/11/05 07:50:02;;;;;;;7.00;3.10;;;;;;;8.71;100.00;97318.52;223090;1265;139214;-81
2023/11/05 07:55:55;;;;;;;;;;;;;;;;;;;;;
2023/11/05 08:01:45;;;;;;;;;;;;;;;;;;;;;
2023/11/05 08:07:47;;;;;;;8.70;3.40;;;;;;;9.00;100.00;97303.23;223782;1265;138340;-82
2023/11/05 08:13:48;;;;;;;8.40;3.80;;;;;;;9.07;100.00;97302.92;223773;1265;138153;-82
2023/11/05 08:19:50;;;;;;;9.60;3.80;;;;;;;9.15;100.00;97308.13;223236;1266;140579;-81
2023/11/05 08:31:44;;;;;;;10.80;3.60;;;;;;;9.46;100.00;97297.18;223074;1269;139506;-81
2023/11/05 08:37:43;;;;;;;;;;;;;;;;;;;;;
2023/11/05 08:43:46;;;;;;;6.70;3.20;;;;;;;9.98;100.00;97283.58;223683;1265;138248;-81
2023/11/05 08:49:46;;;;;;;8.00;3.40;;;;;;;10.31;100.00;97291.78;223196;1265;139151;-82
2023/11/05 08:55:48;;;;;;;7.10;3.10;;;;;;;10.50;100.00;97297.86;223632;1266;139124;-82
2023/11/05 09:01:49;;;;;;;7.90;3.80;;;;;;;10.65;100.00;97290.84;223109;1265;140051;-83
2023/11/05 09:07:51;;;;;;;7.00;3.50;;;;;;;10.72;100.00;97292.77;223669;1265;138792;-82
2023/11/05 09:19:53;;;;;;;8.20;3.40;;;;;;;10.84;100.00;97273.80;222928;1265;139976;-82
2023/11/05 09:25:30;;;;;;;;;;;;;;;;;;;;;
2023/11/05 09:37:58;;;;;;;7.80;3.30;;;;;;;11.03;100.00;97275.52;223699;1265;139107;-83
2023/11/05 09:43:50;;;;;;;;;;;;;;;;;;;;;
2023/11/05 09:49:52;;;;;;;6.40;3.20;;;;;;;11.18;100.00;97255.40;223090;1265;140031;-82
2023/11/05 10:01:48;;;;;;;7.70;3.20;;;;;;;11.50;100.00;97245.30;223114;1265;139318;-81
2023/11/05 10:07:50;;;;;;;7.00;3.30;;;;;;;11.72;100.00;97237.66;223749;1265;139041;-82
2023/11/05 10:13:37;;;;;;;;;;;;;;;;;;;;;
2023/11/05 10:19:41;;;;;;;8.90;3.30;;;;;;;12.03;100.00;97236.77;223180;1265;140566;-81
2023/11/05 10:25:41;;;;;;;9.50;4.00;;;;;;;12.15;100.00;97239.88;223737;1265;138799;-82
2023/11/05 10:31:43;;;;;;;10.10;4.10;;;;;;;12.27;100.00;97237.57;223139;1265;139659;-82
2023/11/05 10:37:37;;;;;;;10.40;5.00;;;;;;;12.37;100.00;97228.14;223659;1269;138768;-82
2023/11/05 10:55:43;;;;;;;5.90;2.70;;;;;;;12.70;99.98;97211.40;223771;1265;138549;-83
2023/11/05 11:01:45;;;;;;;7.10;2.80;;;;;;;12.71;99.21;97200.13;223014;1265;139692;-82
2023/11/05 11:19:30;;;;;;;;;;;;;;;;;;;;;
2023/11/05 11:25:16;;;;;;;;;;;;;;;;;;;;;
2023/11/05 11:37:03;;;;;;;7.80;3.40;;;;;;;13.13;97.86;97183.89;223714;1265;138961;-82
2023/11/05 11:48:48;;;;;;;8.70;4.30;;;;;;;13.25;97.46;97181.19;223166;1265;140021;-83
2023/11/05 11:54:35;;;;;;;8.60;3.50;;;;;;;13.36;97.90;97179.54;223741;1265;138508;-84
2023/11/05 12:00:36;;;;;;;9.50;3.50;;;;;;;13.37;97.03;97174.64;223151;1265;139578;-82
2023/11/05 12:06:28;;;;;;;8.80;4.20;;;;;;;13.36;97.02;97167.68;223685;1265;138603;-83
2023/11/05 12:12:29;;;;;;;12.50;4.40;;;;;;;13.35;96.97;97180.98;223079;1265;139601;-83
2023/11/05 12:18:31;;;;;;;12.70;4.00;;;;;;;13.37;97.50;97187.35;223144;1266;139817;-83
2023/11/05 12:24:17;;;;;;;7.10;3.50;;;;;;;13.34;97.59;97187.52;223645;1265;138643;-83
2023/11/05 12:29:58;;;;;;;;;;;;;;;13.29;96.97;97180.06;222987;1268;139719;-83
2023/11/05 12:42:00;;;;;;;8.50;3.10;;;;;;;13.19;97.53;97171.81;223083;1265;139597;-83
2023/11/05 12:48:02;;;;;;;5.70;2.80;;;;;;;13.17;97.21;97174.41;223274;1265;139279;-83
2023/11/05 12:54:10;;;;;;;8.20;3.70;;;;;;;13.17;97.59;97175.85;223664;1265;138644;-83
2023/11/05 13:00:13;;;;;;;10.50;4.10;;;;;;;13.18;97.27;97178.08;223186;1265;139311;-81
2023/11/05 13:06:13;;;;;;;10.30;4.20;;;;;;;13.22;96.91;97187.98;223641;1265;139363;-82
2023/11/05 13:18:07;;;;;;;;;;;;;;;;;;;;;
2023/11/05 13:24:10;;;;;;;7.90;3.60;;;;;;;13.23;96.23;97203.39;223689;1265;138920;-82
2023/11/05 13:30:00;;;;;;;7.40;3.40;;;;;;;13.23;96.19;97215.44;223084;1265;140264;-83
2023/11/05 13:36:02;;;;;;;7.50;3.30;;;;;;;13.21;95.76;97213.22;223604;1265;138532;-82
2023/11/05 13:41:58;;;;;;;5.90;3.20;;;;;;;13.17;95.62;97225.88;223060;1265;139553;-81
2023/11/05 13:48:00;;;;;;;7.50;3.60;;;;;;;13.15;96.12;97216.48;223725;1265;138500;-83
2023/11/05 13:54:01;;;;;;;10.70;4.10;;;;;;;13.13;96.26;97227.41;223695;1265;138681;-82
2023/11/05 13:59:51;;;;;;;;;;;;;;;;;;;;;
2023/11/05 14:05:53;;;;;;;11.10;4.50;;;;;;;13.06;96.33;97231.58;223493;1265;138400;-82
2023/11/05 14:11:38;;;;;;;10.30;4.70;;;;;;;13.02;97.30;97229.95;223172;1265;140014;-82
2023/11/05 14:17:41;;;;;;;10.20;4.90;;;;;;;13.01;97.60;97235.74;223619;1265;139056;-82
2023/11/05 14:23:40;;;;;;;;;;;;;;;;;;;;;
2023/11/05 14:29:42;;;;;;;12.10;5.60;;;;;;;12.99;98.99;97246.98;223128;1265;139943;-82
2023/11/05 14:35:30;;;;;;;;;;;;;;;;;;;;;
2023/11/05 14:41:23;;;;;;;;;;;;;;;;;;;;;
2023/11/05 14:47:26;;;;;;;11.60;5.80;;;;;;;12.86;99.99;97268.21;223637;1266;138575;-81
2023/11/05 14:53:27;;;;;;;14.30;6.40;;;;;;;12.82;100.00;97273.38;223607;1266;138731;-80
2023/11/05 14:59:18;;;;;;;16.10;7.00;;;;;;;12.78;100.00;97287.39;223093;1269;140085;-80
2023/11/05 15:04:45;;;;;;;16.00;6.90;;;;;;;12.71;100.00;97288.21;223573;1266;138828;-81
2023/11/05 15:10:36;;;;;;;14.90;6.40;;;;;;;12.67;100.00;97287.61;223239;1266;140629;-81
2023/11/05 15:16:31;;;;;;;;;;;;;;;;;;;;;
2023/11/05 15:22:13;;;;;;;;;;;;;;;;;;;;;
2023/11/05 15:34:17;;;;;;;16.00;7.00;;;;;;;12.37;100.00;97297.06;223529;1266;138650;-83
2023/11/05 15:40:10;;;;;;;;;;;;;;;;;;;;;
2023/11/05 15:46:10;;;;;;;;;;;;;;;;;;;;;
2023/11/05 15:52:02;;;;;;;;;;;;;;;;;;;;;
2023/11/05 15:57:48;;;;;;;17.40;9.20;;;;;;;12.10;100.00;97308.15;223096;1265;140288;-83
2023/11/05 16:03:51;;;;;;;20.10;9.90;;;;;;;12.06;100.00;97313.12;223639;1266;138847;-82
2023/11/05 16:09:49;;;;;;;;;;;;;;;;;;;;;
2023/11/05 16:15:46;;;;;;;16.30;8.10;;;;;;;11.98;100.00;97328.13;223561;1265;138934;-83
2023/11/05 16:21:48;;;;;;;19.20;9.90;;;;;;;11.96;100.00;97338.05;223188;1266;140547;-82
2023/11/05 16:27:42;;;;;;;18.20;9.60;;;;;;;11.94;100.00;97343.20;223548;1265;139089;-83
2023/11/05 16:33:27;;;;;;;15.80;10.20;;;;;;;11.91;100.00;97349.94;223690;1266;139376;-83
2023/11/05 16:39:21;;;;;;;;;;;;;;;;;;;;;
2023/11/05 16:51:33;;;;;;;17.10;9.40;;;;;;;11.89;100.00;97363.95;222991;1269;140030;-83
2023/11/05 16:57:25;;;;;;;;;;;;;;;;;;;;;
2023/11/05 17:03:12;;;;;;;;;;;;;;;;;;;;;
2023/11/05 17:08:54;;;;;;;;;;;;;;;11.87;100.00;97378.52;223225;1265;139979;-82
2023/11/05 17:15:01;;;;;;;29.50;11.60;;;;;;;11.84;100.00;97392.36;223722;1266;124850;-83
2023/11/05 17:20:56;;;;;;;19.50;10.00;;;;;;;11.82;100.00;97403.13;223128;1265;140347;-83
2023/11/05 17:26:58;;;;;;;16.60;9.10;;;;;;;11.80;100.00;97411.40;223709;1269;139514;-83
2023/11/05 17:32:44;;;;;;;;;;;;;;;;;;;;;
2023/11/05 17:38:46;;;;;;;18.00;8.60;;;;;;;11.66;100.00;97423.70;223148;1266;140757;-82
2023/11/05 17:44:47;;;;;;;17.90;9.30;;;;;;;11.60;100.00;97424.36;223593;1269;139338;-83
2023/11/05 17:50:48;;;;;;;17.80;9.50;;;;;;;11.55;100.00;97425.34;223088;1266;140033;-83
2023/11/05 17:56:41;;;;;;;;;;;;;;;;;;;;;
2023/11/05 18:02:43;;;;;;;17.60;8.90;;;;;;;11.47;100.00;97437.77;222990;1266;139950;-83
2023/11/05 18:08:45;;;;;;;17.00;8.30;;;;;;;11.41;100.00;97442.37;222997;1266;140078;-83
2023/11/05 18:14:40;;;;;;;18.20;9.10;;;;;;;11.34;100.00;97445.40;223525;1265;138634;-83
2023/11/05 18:20:34;;;;;;;17.20;8.20;;;;;;;11.29;100.00;97450.15;223066;1266;140290;-83
2023/11/05 18:26:19;;;;;;;;;;;;;;;;;;;;;
2023/11/05 18:32:11;;;;;;;;;;;;;;;;;;;;;
2023/11/05 18:38:13;;;;;;;14.60;7.10;;;;;;;11.20;100.00;97467.70;223038;1267;140176;-83
2023/11/05 18:44:16;;;;;;;19.60;7.90;;;;;;;11.19;100.00;97474.85;223573;1270;139497;-83
2023/11/05 18:50:16;;;;;;;18.50;8.70;;;;;;;11.16;100.00;97485.63;223157;1265;140177;-83
2023/11/05 18:56:09;;;;;;;;;;;;;;;;;;;;;
2023/11/05 19:01:59;;;;;;;20.70;9.90;;;;;;;11.12;100.00;97503.56;223072;1269;139866;-83
2023/11/05 19:07:57;;;;;;;19.70;9.00;;;;;;;11.11;100.00;97514.70;223639;1265;139085;-83
2023/11/05 19:13:59;;;;;;;22.80;10.50;;;;;;;11.09;100.00;97519.02;223519;1269;139399;-81
2023/11/05 19:19:57;;;;;;;15.60;7.80;;;;;;;11.08;100.00;97527.09;223240;1266;140015;-83
2023/11/05 19:25:47;;;;;;;16.10;8.40;;;;;;;11.07;100.00;97535.83;223675;1265;139454;-83
2023/11/05 19:31:42;;;;;;;17.50;9.20;;;;;;;11.07;100.00;97551.62;222871;1270;140113;-83
2023/11/05 19:37:44;;;;;;;16.20;7.00;;;;;;;11.07;100.00;97554.80;223664;1270;138720;-83
2023/11/05 19:43:45;;;;;;;15.30;7.70;;;;;;;11.08;100.00;97561.98;223512;1269;139292;-83
2023/11/05 19:49:46;;;;;;;18.20;7.60;;;;;;;11.08;100.00;97569.13;223092;1270;140037;-83
2023/11/05 19:55:44;;;;;;;16.20;7.00;;;;;;;11.09;100.00;97581.30;223530;1267;138912;-83
2023/11/05 20:01:39;;;;;;;12.80;5.40;;;;;;;11.09;100.00;97587.33;223205;1269;140162;-83
2023/11/05 20:07:40;;;;;;;12.20;4.80;;;;;;;11.10;100.00;97598.22;223611;1269;139517;-84
2023/11/05 20:13:43;;;;;;;14.00;6.40;;;;;;;11.11;100.00;97598.13;223736;1267;139295;-83
2023/11/05 20:19:42;;;;;;;;;;;;;;;;;;;;;
2023/11/05 20:25:45;;;;;;;12.10;5.20;;;;;;;11.13;100.00;97619.61;223569;1269;139469;-83
2023/11/05 20:31:47;;;;;;;9.20;4.30;;;;;;;11.13;100.00;97624.52;223001;1267;139894;-83
2023/11/05 20:38:09;;;;;;;11.70;3.80;;;;;;;11.13;100.00;97630.02;223678;1267;139241;-84
2023/11/05 20:43:52;;;;;;;7.80;3.20;;;;;;;11.12;100.00;97636.15;223639;1269;139993;-85
2023/11/05 20:49:47;;;;;;;9.40;3.60;;;;;;;11.11;100.00;97639.38;223191;1266;140336;-85
2023/11/05 20:55:48;;;;;;;10.10;3.40;;;;;;;11.11;100.00;97653.00;223580;1266;139104;-84
2023/11/05 21:01:50;;;;;;;8.80;3.80;;;;;;;11.10;100.00;97655.86;223176;1267;140424;-83
2023/11/05 21:07:50;;;;;;;11.50;4.40;;;;;;;11.05;100.00;97665.51;223723;1265;139312;-83
2023/11/05 21:13:52;;;;;;;8.50;3.20;;;;;;;10.98;100.00;97665.02;223581;1267;138861;-84
2023/11/05 21:19:52;;;;;;;7.00;2.90;;;;;;;10.95;100.00;97675.42;223064;1267;140035;-84
2023/11/05 21:25:53;;;;;;;7.70;3.30;;;;;;;10.92;100.00;97685.66;223647;1267;138686;-84
2023/11/05 21:37:58;;;;;;;8.50;3.80;;;;;;;10.86;100.00;97704.65;223544;1267;139240;-82
2023/11/05 21:43:36;;;;;;;7.50;3.20;;;;;;;10.86;100.00;97716.67;223718;1267;138673;-83
2023/11/05 21:49:26;;;;;;;7.00;3.10;;;;;;;10.86;100.00;97725.15;223097;1267;139705;-84
2023/11/05 21:55:28;;;;;;;8.00;2.80;;;;;;;10.86;100.00;97730.80;223752;1267;139351;-83
2023/11/05 22:01:29;;;;;;;8.10;3.00;;;;;;;10.87;100.00;97738.65;223324;1266;139977;-83
2023/11/05 22:07:30;;;;;;;6.10;3.00;;;;;;;10.86;100.00;97753.13;223586;1265;138992;-84
2023/11/05 22:13:23;;;;;;;;;;;;;;;;;;;;;
2023/11/05 22:19:18;;;;;;;8.90;2.90;;;;;;;10.85;100.00;97770.02;223226;1265;139971;-83
2023/11/05 22:25:17;;;;;;;;;;;;;;;;;;;;;
2023/11/05 22:31:09;;;;;;;;;;;;;;;;;;;;;
2023/11/05 22:37:04;;;;;;;6.50;2.60;;;;;;;10.78;100.00;97792.54;223715;1265;138853;-82
2023/11/05 22:42:48;;;;;;;7.30;2.80;;;;;;;10.78;100.00;97795.94;223304;1266;139491;-82
2023/11/05 22:48:47;;;;;;;;;;;;;;;;;;;;;
2023/11/05 22:54:50;;;;;;;9.00;2.60;;;;;;;10.82;100.00;97802.89;223565;1265;138849;-81
2023/11/05 23:00:48;;;;;;;;;;;;;;;;;;;;;
2023/11/05 23:07:11;;;;;;;6.20;2.70;;;;;;;10.87;100.00;97826.30;223534;1265;139013;-83
2023/11/05 23:12:54;;;;;;;6.70;2.40;;;;;;;10.89;100.00;97833.31;223108;1266;139912;-82
2023/11/05 23:18:55;;;;;;;7.10;2.60;;;;;;;10.90;100.00;97836.12;223279;1265;140886;-81
2023/11/05 23:24:55;;;;;;;7.40;2.40;;;;;;;10.90;100.00;97854.35;223659;1266;138976;-84
2023/11/05 23:30:56;;;;;;;5.80;2.60;;;;;;;10.88;100.00;97857.73;223125;1265;140078;-83
2023/11/05 23:36:59;;;;;;;4.40;2.20;;;;;;;10.84;100.00;97871.61;223749;1266;138730;-83
2023/11/05 23:43:00;;;;;;;6.90;2.10;;;;;;;10.81;100.00;97875.45;223222;1268;139558;-82
2023/11/05 23:49:01;;;;;;;5.20;1.90;;;;;;;10.80;100.00;97887.73;223230;1265;140182;-83
